Aérodrome :
LOGIN :

S'inscrire | Disclaimer

   EN    FR    IT 

 










Légende :    VFR   VFR Marginal   IFR   IFR Intensif   IFR Très Intensif
Visi : 
Plafond : 
>= 8 km
>= 3000ft
5 à 8 km
1000 à 3000 ft
1500m à 5 km
500 à 1000 ft
800 à 1500m
200 à 500 ft
< 800m
< 200 ft
Symboles :   Orages  Brouillard  Fortes neiges  Fortes précipitations  Vent > 20 kt
SIGMETs :   Divers  Orages  Givrage  Turbulence  Onde Orograph.  Cendres Volcan.






- Altitude de l'aérodrome : 215 ft
- Code IATA : ABZ


EGPD - Aberdeen / Dyce

DERNIER METAR :
  • 151920Z AUTO VRB01KT 9999 SCT042 08/07 Q1000 NOSIG

METARs EXPIRÉS :
  • 151850Z AUTO 34005KT 9999 FEW047 09/08 Q1000 NOSIG
  • 151820Z AUTO 31006KT 9999 FEW042 09/08 Q1000 NOSIG
  • 151750Z AUTO 31006KT 9999 SCT042 09/07 Q1000 NOSIG
  • 151720Z 31006KT 9999 BKN042 09/08 Q1000
  • 151650Z 31006KT 9999 BKN035 10/08 Q1000 RESHRA NOSIG

TAF AMD TAF EGPD
Valide du 15 à 19h jusqu'au 16 à 18h UTC


151955Z 1519/1618 VRB03KT 9999 SCT020
TEMPO 1519/1604 4000 BR BKN007
BECMG 1604/1607 15010KT
PROB40
TEMPO 1604/1610 BKN006
TEMPO 1610/1614 6000 -RADZ BKN012
PROB40
TEMPO 1610/1614 3000 DZ BR BKN004
BECMG 1614/1617 33008KT



MET'MAP, la Météo Aéronautique d'un coup d'oeil ! - Copyright ORBIFLY Décembre 2007 - Disclaimer

ORBIFLY MET'MAP TEAM :

Programmation & Développement : Alexandra Zaïnal
Conception & Développement : Baudouin d'Aumeries
Co-Programmation & Développement : Marc-Olivier Méhu
Soutien technique & logistique : Manuel Goepfert

Contact : metmap@orbifly.com




SOURCES & CREDITS :

   NOAA